Bayandelger, Mongolia
Current Conditions -  °F | °C
As of 4:00 AM on Thursday 18 Dec 2014 (Local Time) from ZMUB Reporting Station
Smoke Smoke  
Wind Chill: -21°   Ceiling: Unl
Heat Index: -9°   Visibility: 3mi
Dew Point: -15°   Wind: 4mph
Humidity: 77%   Direction: 190°S
Pressure: 29.94"   Gusts: NA
Location:  45.73°N, 112.37°E
Report Text: ZMUB 172000Z 19002MPS 5000NW FU NSC M23/M26 Q1014 NOSIG RMK QFE653.6 77 NT
Loading
Personal Weather Stations






























Interactive Weather Map New forecast layout! Learn more

10-Day Weather Forecast

Advertisements
Track Severe Weather on mobile